Weather History for Grove, OK

Change the Weather History Date:

Saturday, March 2, 2013

  Actual Average (KSLG) Record (KSLG)
Temperature  
Mean Temperature 32 °F -  
Max Temperature 41 °F 50 °F 71 °F (2008)
Min Temperature 24 °F 31 °F 6 °F (2014)
Degree Days  
Heating Degree Days 32    
Moisture  
Dew Point 23 °F    
Average Humidity 73    
Maximum Humidity 93    
Minimum Humidity 45    
Precipitation  
Precipitation 0.00 in - - ()
Sea Level Pressure  
Sea Level Pressure 30.31 in    
Wind  
Wind Speed 7 mph (NNW)    
Max Wind Speed 12 mph    
Max Gust Speed 16 mph    
Visibility 10 miles    
Events      
Averages and records for this station are not official NWS values.
T = Trace of Precipitation, MM = Missing Value Source: NWS Daily Summary

Daily Weather History Graph

Daily Weather History Graph

Search for Another Location

Airport:

Trip Planner

Search our weather history database for the weather conditions in past years. The results will help you decide how hot, cold, wet, or windy it might be!

Date:

Astronomy

Mar. 02, 2013 Rise Set
Actual Time 6:47 AM CST 6:14 PM CST
Civil Twilight 6:21 AM CST 6:40 PM CST
Nautical Twilight 5:52 AM CST 7:10 PM CST
Astronomical Twilight 5:22 AM CST 7:40 PM CST
Moon 11:44 PM CST (3/2) 9:26 AM CST (3/2)
Length of Visible Light 12h 18m
Length of Day
11h 26m
Waning Gibbous, 74% of the Moon is Illuminated
Mar 2
Waning Gibbous
Mar 4
Last Quarter
Mar 11
New
Mar 19
First Quarter
Mar 27
Full

Hourly Weather History & Observations

Time (CST) Temp. Windchill Dew Point Humidity Pressure Visibility Wind Dir Wind Speed Gust Speed Precip Events Conditions
12:15 AM 30.2 °F 21.3 °F 24.8 °F 80% 30.31 in 10.0 mi North 10.4 mph 16.1 mph N/A   Overcast
12:35 AM 30.2 °F 20.8 °F 24.8 °F 80% 30.31 in 10.0 mi NNW 11.5 mph - N/A   Overcast
12:55 AM 30.2 °F 21.9 °F 24.8 °F 80% 30.31 in 10.0 mi NNW 9.2 mph - N/A   Overcast
1:15 AM 30.2 °F 22.6 °F 24.8 °F 80% 30.31 in 10.0 mi NNW 8.1 mph - N/A   Overcast
1:35 AM 30.2 °F 21.3 °F 23.0 °F 75% 30.32 in 10.0 mi NNW 10.4 mph - N/A   Overcast
1:55 AM 30.2 °F 21.9 °F 23.0 °F 75% 30.32 in 10.0 mi NNW 9.2 mph - N/A   Overcast
2:15 AM 28.4 °F 21.2 °F 23.0 °F 80% 30.31 in 10.0 mi NNW 6.9 mph - N/A   Scattered Clouds
2:35 AM 28.4 °F 21.2 °F 23.0 °F 80% 30.31 in 10.0 mi NNW 6.9 mph - N/A   Clear
2:55 AM 28.4 °F 22.2 °F 23.0 °F 80% 30.31 in 10.0 mi NNW 5.8 mph - N/A   Scattered Clouds
3:15 AM 28.4 °F 21.2 °F 23.0 °F 80% 30.31 in 10.0 mi NNW 6.9 mph - N/A   Mostly Cloudy
3:35 AM 28.4 °F 22.2 °F 23.0 °F 80% 30.30 in 10.0 mi NNW 5.8 mph - N/A   Scattered Clouds
3:55 AM 28.4 °F 23.3 °F 23.0 °F 80% 30.30 in 10.0 mi NNW 4.6 mph - N/A   Clear
4:15 AM 28.4 °F 22.2 °F 23.0 °F 80% 30.31 in 10.0 mi NW 5.8 mph - N/A   Clear
4:35 AM 26.6 °F 20.0 °F 23.0 °F 86% 30.31 in 10.0 mi NW 5.8 mph - N/A   Clear
4:55 AM 26.6 °F 18.2 °F 23.0 °F 86% 30.32 in 10.0 mi NNW 8.1 mph - N/A   Clear
5:15 AM 26.6 °F 18.2 °F 23.0 °F 86% 30.32 in 10.0 mi NNW 8.1 mph - N/A   Clear
6:15 AM 26.6 °F 21.2 °F 23.0 °F 86% 30.33 in 10.0 mi NW 4.6 mph - N/A   Clear
6:35 AM 24.8 °F 20.5 °F 23.0 °F 93% 30.34 in 10.0 mi NW 3.5 mph - N/A   Clear
6:55 AM 24.8 °F 20.5 °F 23.0 °F 93% 30.35 in 7.0 mi NW 3.5 mph - N/A   Clear
7:15 AM 26.6 °F 19.1 °F 23.0 °F 86% 30.35 in 7.0 mi NNW 6.9 mph - N/A   Clear
7:35 AM 26.6 °F 20.0 °F 23.0 °F 86% 30.35 in 7.0 mi NNW 5.8 mph - N/A   Clear
7:55 AM 26.6 °F 19.1 °F 24.8 °F 93% 30.36 in 7.0 mi NNW 6.9 mph - N/A   Clear
8:15 AM 28.4 °F 20.4 °F 24.8 °F 86% 30.36 in 10.0 mi NNW 8.1 mph - N/A   Clear
8:35 AM 28.4 °F 20.4 °F 24.8 °F 86% 30.37 in 7.0 mi NW 8.1 mph - N/A   Clear
8:55 AM 30.2 °F 23.4 °F 24.8 °F 80% 30.37 in 10.0 mi NNW 6.9 mph - N/A   Clear
9:15 AM 32.0 °F 23.6 °F 23.0 °F 69% 30.38 in 10.0 mi NNW 10.4 mph - N/A   Clear
9:35 AM 32.0 °F 24.2 °F 23.0 °F 69% 30.37 in 10.0 mi North 9.2 mph - N/A   Clear
9:55 AM 32.0 °F 23.6 °F 21.2 °F 64% 30.36 in 10.0 mi North 10.4 mph - N/A   Scattered Clouds
10:15 AM 32.0 °F 24.8 °F 21.2 °F 64% 30.36 in 10.0 mi North 8.1 mph - N/A   Scattered Clouds
10:35 AM 32.0 °F 24.8 °F 21.2 °F 64% 30.37 in 10.0 mi NNW 8.1 mph - N/A   Mostly Cloudy
10:55 AM 32.0 °F 24.8 °F 21.2 °F 64% 30.36 in 10.0 mi NNW 8.1 mph - N/A   Mostly Cloudy
11:15 AM 33.8 °F 29.6 °F 21.2 °F 60% 30.36 in 10.0 mi NNW 4.6 mph - N/A   Mostly Cloudy
11:35 AM 33.8 °F 26.4 °F 21.2 °F 60% 30.36 in 10.0 mi NNW 9.2 mph - N/A   Scattered Clouds
11:55 AM 33.8 °F 26.4 °F 21.2 °F 60% 30.36 in 10.0 mi NNW 9.2 mph - N/A   Scattered Clouds
12:15 PM 35.6 °F 27.5 °F 23.0 °F 60% 30.35 in 10.0 mi NW 11.5 mph - N/A   Scattered Clouds
12:35 PM 33.8 °F 27.7 °F 21.2 °F 60% 30.34 in 10.0 mi NNW 6.9 mph - N/A   Scattered Clouds
12:55 PM 35.6 °F 29.9 °F 21.2 °F 56% 30.33 in 10.0 mi WNW 6.9 mph - N/A   Clear
1:15 PM 35.6 °F 29.2 °F 21.2 °F 56% 30.32 in 10.0 mi NNW 8.1 mph - N/A   Clear
1:35 PM 37.4 °F 32.1 °F 21.2 °F 52% 30.31 in 10.0 mi North 6.9 mph - N/A   Clear
1:55 PM 37.4 °F 32.1 °F 23.0 °F 56% 30.31 in 10.0 mi NNW 6.9 mph - N/A   Clear
2:15 PM 37.4 °F 31.4 °F 23.0 °F 56% 30.31 in 10.0 mi NNW 8.1 mph - N/A   Clear
2:35 PM 37.4 °F 32.1 °F 23.0 °F 56% 30.30 in 10.0 mi NNW 6.9 mph - N/A   Clear
2:55 PM 37.4 °F 31.4 °F 21.2 °F 52% 30.30 in 10.0 mi NW 8.1 mph - N/A   Clear
3:15 PM 39.2 °F 37.0 °F 21.2 °F 49% 30.29 in 10.0 mi NW 3.5 mph - N/A   Clear
3:35 PM 39.2 °F 35.0 °F 21.2 °F 49% 30.29 in 10.0 mi WNW 5.8 mph - N/A   Clear
3:55 PM 39.2 °F - 21.2 °F 49% 30.29 in 10.0 mi Calm Calm - N/A   Clear
4:15 PM 41.0 °F 37.1 °F 21.2 °F 45% 30.28 in 10.0 mi NW 5.8 mph - N/A   Clear
4:35 PM 39.2 °F 35.9 °F 21.2 °F 49% 30.28 in 10.0 mi North 4.6 mph - N/A   Clear
4:55 PM 39.2 °F - 21.2 °F 49% 30.28 in 10.0 mi Calm Calm - N/A   Clear
5:15 PM 39.2 °F 35.9 °F 21.2 °F 49% 30.28 in 10.0 mi NW 4.6 mph - N/A   Clear
5:35 PM 37.4 °F 33.8 °F 23.0 °F 56% 30.28 in 10.0 mi NNW 4.6 mph - N/A   Clear
5:55 PM 37.4 °F - 23.0 °F 56% 30.28 in 10.0 mi Calm Calm - N/A   Clear
6:15 PM 35.6 °F - 23.0 °F 60% 30.28 in 10.0 mi Calm Calm - N/A   Clear
6:35 PM 35.6 °F - 26.6 °F 70% 30.28 in 10.0 mi Calm Calm - N/A   Clear
6:55 PM 33.8 °F - 26.6 °F 75% 30.28 in 10.0 mi Calm Calm - N/A   Clear
7:15 PM 32.0 °F - 26.6 °F 80% 30.28 in 10.0 mi Calm Calm - N/A   Clear
7:35 PM 32.0 °F - 26.6 °F 80% 30.28 in 10.0 mi Calm Calm - N/A   Clear
7:55 PM 32.0 °F - 26.6 °F 80% 30.27 in 10.0 mi Calm Calm - N/A   Clear
8:15 PM 30.2 °F - 24.8 °F 80% 30.26 in 10.0 mi Calm Calm - N/A   Clear
8:35 PM 30.2 °F - 26.6 °F 86% 30.26 in 10.0 mi Calm Calm - N/A   Clear
8:55 PM 30.2 °F - 24.8 °F 80% 30.26 in 10.0 mi Calm Calm - N/A   Clear
9:15 PM 28.4 °F - 24.8 °F 86% 30.25 in 10.0 mi Calm Calm - N/A   Clear
9:35 PM 28.4 °F - 26.6 °F 93% 30.26 in 10.0 mi Calm Calm - N/A   Clear
9:55 PM 28.4 °F - 26.6 °F 93% 30.26 in 10.0 mi Calm Calm - N/A   Clear
10:15 PM 28.4 °F - 24.8 °F 86% 30.25 in 10.0 mi Calm Calm - N/A   Scattered Clouds
10:35 PM 28.4 °F - 26.6 °F 93% 30.24 in 10.0 mi Calm Calm - N/A   Scattered Clouds
10:55 PM 28.4 °F - 26.6 °F 93% 30.23 in 10.0 mi Calm Calm - N/A   Scattered Clouds
11:15 PM 28.4 °F - 24.8 °F 86% 30.23 in 10.0 mi Calm Calm - N/A   Scattered Clouds
11:35 PM 28.4 °F - 26.6 °F 93% 30.23 in 10.0 mi Calm Calm - N/A   Scattered Clouds
11:55 PM 28.4 °F - 24.8 °F 86% 30.22 in 10.0 mi Calm Calm - N/A   Scattered Clouds